createdAt,value
2023-05-18T00:01:28.048Z,17.07
2023-05-18T00:03:57.187Z,17.01
2023-05-18T00:06:28.019Z,16.50
2023-05-18T00:08:57.206Z,16.85
2023-05-18T00:11:26.368Z,16.73
2023-05-18T00:13:55.871Z,16.91
2023-05-18T00:16:26.478Z,16.93
2023-05-18T00:18:56.774Z,16.75
2023-05-18T00:21:33.840Z,16.67
2023-05-18T00:24:03.170Z,16.59
2023-05-18T00:26:32.297Z,16.63
2023-05-18T00:29:01.701Z,16.68
2023-05-18T00:31:36.166Z,16.79
2023-05-18T00:34:05.786Z,16.69
2023-05-18T00:36:36.223Z,16.61
2023-05-18T00:39:07.985Z,16.60
2023-05-18T00:41:37.201Z,16.53
2023-05-18T00:44:06.422Z,16.36
2023-05-18T00:46:40.326Z,15.92
2023-05-18T00:49:09.433Z,16.50
2023-05-18T00:51:40.313Z,16.33
2023-05-18T00:54:10.453Z,16.39
2023-05-18T00:56:41.950Z,16.14
2023-05-18T00:59:12.008Z,16.41
2023-05-18T01:01:46.723Z,16.47
2023-05-18T01:04:16.256Z,16.44
2023-05-18T01:06:47.219Z,16.27
2023-05-18T01:09:16.932Z,16.27
2023-05-18T01:12:01.199Z,16.34
2023-05-18T01:14:36.682Z,16.09
2023-05-18T01:17:21.808Z,16.03
2023-05-18T01:20:08.406Z,16.01
2023-05-18T01:22:51.525Z,15.92
2023-05-18T01:25:32.286Z,15.94
2023-05-18T01:28:07.433Z,15.88
2023-05-18T01:30:40.069Z,16.01
2023-05-18T01:33:10.462Z,15.80
2023-05-18T01:35:41.833Z,16.05
2023-05-18T01:38:10.791Z,16.20
2023-05-18T01:40:49.182Z,16.14
2023-05-18T01:43:27.205Z,16.36
2023-05-18T01:46:03.020Z,16.25
2023-05-18T01:48:36.787Z,16.37
2023-05-18T01:51:07.639Z,16.30
2023-05-18T01:53:44.929Z,16.29
2023-05-18T01:56:15.790Z,16.29
2023-05-18T01:58:46.814Z,16.25
2023-05-18T02:01:21.957Z,16.11
2023-05-18T02:03:51.956Z,16.16
2023-05-18T02:06:21.152Z,16.09
2023-05-18T02:08:51.631Z,16.03
2023-05-18T02:11:21.596Z,16.08
2023-05-18T02:13:52.065Z,15.50
2023-05-18T02:16:21.687Z,15.87
2023-05-18T02:18:54.913Z,15.78
2023-05-18T02:21:24.108Z,15.73
2023-05-18T02:23:53.134Z,15.72
2023-05-18T02:26:22.455Z,15.61
2023-05-18T02:28:56.084Z,15.60
2023-05-18T02:31:25.213Z,15.61
2023-05-18T02:33:54.809Z,15.50
2023-05-18T02:36:23.820Z,15.53
2023-05-18T02:38:52.972Z,15.45
2023-05-18T02:41:22.945Z,15.44
2023-05-18T02:43:51.813Z,15.57
2023-05-18T02:46:23.197Z,15.60
2023-05-18T02:48:52.385Z,15.54
2023-05-18T02:51:21.838Z,14.97
2023-05-18T02:53:51.956Z,15.16
2023-05-18T02:56:22.062Z,15.48
2023-05-18T02:58:58.555Z,15.65
2023-05-18T03:01:44.359Z,15.63
2023-05-18T03:04:17.096Z,15.73
2023-05-18T03:06:53.102Z,15.73
2023-05-18T03:09:24.301Z,15.84
2023-05-18T03:11:56.110Z,15.75
2023-05-18T03:14:25.225Z,16.06
2023-05-18T03:17:00.599Z,16.02
2023-05-18T03:19:29.808Z,16.09
2023-05-18T03:22:10.390Z,15.88
2023-05-18T03:24:41.280Z,15.88
2023-05-18T03:27:16.736Z,15.94
2023-05-18T03:29:46.744Z,16.13
2023-05-18T03:32:17.931Z,16.27
2023-05-18T03:34:48.105Z,16.14
2023-05-18T03:37:17.955Z,16.35
2023-05-18T03:39:47.039Z,16.55
2023-05-18T03:42:17.416Z,16.54
2023-05-18T03:44:47.112Z,16.69
2023-05-18T03:47:17.790Z,16.76
2023-05-18T03:49:46.839Z,16.84
2023-05-18T03:52:22.528Z,16.90
2023-05-18T03:54:52.113Z,16.94
2023-05-18T03:57:21.105Z,17.00
2023-05-18T03:59:50.183Z,16.81
2023-05-18T04:02:20.878Z,16.96
2023-05-18T04:04:50.027Z,17.09
2023-05-18T04:07:22.298Z,17.13
2023-05-18T04:09:52.498Z,17.28
2023-05-18T04:12:22.043Z,17.23
2023-05-18T04:14:51.108Z,17.38
2023-05-18T04:17:23.115Z,17.42
2023-05-18T04:19:52.716Z,17.50
2023-05-18T04:22:24.431Z,17.34
2023-05-18T04:24:57.414Z,17.53
2023-05-18T04:27:30.177Z,17.51
2023-05-18T04:29:59.363Z,17.45
2023-05-18T04:32:31.307Z,17.62
2023-05-18T04:35:01.937Z,17.82
2023-05-18T04:37:36.601Z,17.88
2023-05-18T04:40:07.964Z,17.77
2023-05-18T04:42:38.166Z,17.71
2023-05-18T04:45:07.938Z,17.81
2023-05-18T04:47:38.800Z,17.91
2023-05-18T04:50:09.067Z,18.05
2023-05-18T04:52:38.049Z,18.16
2023-05-18T04:55:10.899Z,18.21
2023-05-18T04:57:40.176Z,18.15
2023-05-18T05:00:12.982Z,18.60
2023-05-18T05:02:45.779Z,18.69
2023-05-18T05:05:15.366Z,18.66
2023-05-18T05:07:45.497Z,18.73
2023-05-18T05:10:14.794Z,18.90
2023-05-18T05:12:43.929Z,18.90
2023-05-18T05:15:13.652Z,19.00
2023-05-18T05:17:44.270Z,19.03
2023-05-18T05:20:13.468Z,19.10
2023-05-18T05:22:42.718Z,19.22
2023-05-18T05:25:14.019Z,19.33
2023-05-18T05:27:43.072Z,19.55
2023-05-18T05:30:12.957Z,19.65
2023-05-18T05:32:47.198Z,19.74
2023-05-18T05:35:16.256Z,19.71
2023-05-18T05:37:45.550Z,19.60
2023-05-18T05:40:15.169Z,19.85
2023-05-18T05:42:47.133Z,20.06
2023-05-18T05:45:16.496Z,19.78
2023-05-18T05:47:53.278Z,20.14
2023-05-18T05:50:23.752Z,20.47
2023-05-18T05:52:55.481Z,20.65
2023-05-18T05:55:26.824Z,20.59
2023-05-18T05:57:55.752Z,20.91
2023-05-18T06:00:27.887Z,20.93
2023-05-18T06:03:04.208Z,21.02
2023-05-18T06:05:37.381Z,21.29
2023-05-18T06:08:10.521Z,21.31
2023-05-18T06:10:41.436Z,21.35
2023-05-18T06:13:11.680Z,21.65
2023-05-18T06:15:49.177Z,21.73
2023-05-18T06:18:19.559Z,21.42
2023-05-18T06:20:50.591Z,21.94
2023-05-18T06:23:23.606Z,22.20
2023-05-18T06:26:09.114Z,22.20
2023-05-18T06:29:14.233Z,22.53
2023-05-18T06:32:02.202Z,22.47
2023-05-18T06:34:45.884Z,22.75
2023-05-18T06:37:14.973Z,22.86
2023-05-18T06:39:44.248Z,22.81
2023-05-18T06:42:13.563Z,22.83
2023-05-18T06:44:52.936Z,23.02
2023-05-18T06:47:29.674Z,23.24
2023-05-18T06:50:00.230Z,23.29
2023-05-18T06:52:29.294Z,23.20
2023-05-18T06:54:58.469Z,23.53
2023-05-18T06:57:27.791Z,23.65
2023-05-18T06:59:57.291Z,23.70
2023-05-18T07:02:26.502Z,23.83
2023-05-18T07:04:55.588Z,23.89
2023-05-18T07:07:26.210Z,23.73
2023-05-18T07:09:55.494Z,24.08
2023-05-18T07:12:26.198Z,24.10
2023-05-18T07:14:55.118Z,24.29
2023-05-18T07:17:24.258Z,24.27
2023-05-18T07:19:53.536Z,24.39
2023-05-18T07:22:22.676Z,24.63
2023-05-18T07:24:55.698Z,24.26
2023-05-18T07:27:24.812Z,24.37
2023-05-18T07:29:54.161Z,24.50
2023-05-18T07:32:23.459Z,24.58
2023-05-18T07:34:52.642Z,24.79
2023-05-18T07:37:22.140Z,24.82
2023-05-18T07:39:51.817Z,24.99
2023-05-18T07:42:22.262Z,25.05
2023-05-18T07:44:52.574Z,24.89
2023-05-18T07:47:22.519Z,25.13
2023-05-18T07:49:51.732Z,24.88
2023-05-18T07:52:20.731Z,25.29
2023-05-18T07:54:51.831Z,24.70
2023-05-18T07:57:22.654Z,24.85
2023-05-18T07:59:52.507Z,25.56
2023-05-18T08:02:21.646Z,25.56
2023-05-18T08:04:51.815Z,25.70
2023-05-18T08:07:23.888Z,25.46
2023-05-18T08:09:52.774Z,25.76
2023-05-18T08:12:24.890Z,25.57
2023-05-18T08:14:54.079Z,25.67
2023-05-18T08:17:23.133Z,25.45
2023-05-18T08:19:53.856Z,25.98
2023-05-18T08:22:22.848Z,25.76
2023-05-18T08:24:52.102Z,25.81
2023-05-18T08:27:23.862Z,26.00
2023-05-18T08:29:52.827Z,25.77
2023-05-18T08:32:22.542Z,26.26
2023-05-18T08:34:51.946Z,26.05
2023-05-18T08:37:22.344Z,26.11
2023-05-18T08:39:54.569Z,26.36
2023-05-18T08:42:45.705Z,26.06
2023-05-18T08:45:24.325Z,26.32
2023-05-18T08:47:57.648Z,26.44
2023-05-18T08:50:28.083Z,25.93
2023-05-18T08:53:01.187Z,26.22
2023-05-18T08:55:30.762Z,26.56
2023-05-18T08:58:03.764Z,26.30
2023-05-18T09:00:35.983Z,26.94
2023-05-18T09:03:06.562Z,26.80
2023-05-18T09:05:37.900Z,26.99
2023-05-18T09:08:09.320Z,27.03
2023-05-18T09:10:39.600Z,27.48
2023-05-18T09:13:11.201Z,27.76
2023-05-18T09:15:40.253Z,27.68
2023-05-18T09:18:09.769Z,27.60
2023-05-18T09:20:39.095Z,28.26
2023-05-18T09:23:08.972Z,28.31
2023-05-18T09:25:44.009Z,28.28
2023-05-18T09:28:15.384Z,28.07
2023-05-18T09:30:44.936Z,28.41
2023-05-18T09:33:19.158Z,28.38
2023-05-18T09:35:48.801Z,27.70
2023-05-18T09:38:21.945Z,28.15
2023-05-18T09:40:51.837Z,28.30
2023-05-18T09:43:22.484Z,28.76
2023-05-18T09:45:51.573Z,28.06
2023-05-18T09:48:23.470Z,28.30
2023-05-18T09:50:54.005Z,29.01
2023-05-18T09:53:23.560Z,28.45
2023-05-18T09:55:53.092Z,28.78
2023-05-18T09:58:23.658Z,29.67
2023-05-18T10:00:57.006Z,29.73
2023-05-18T10:03:26.636Z,29.93
2023-05-18T10:05:55.674Z,28.82
2023-05-18T10:08:28.559Z,29.36
2023-05-18T10:10:57.958Z,30.51
2023-05-18T10:13:31.675Z,31.13
2023-05-18T10:16:02.824Z,32.54
2023-05-18T10:18:35.702Z,34.07
2023-05-18T10:21:07.284Z,33.90
2023-05-18T10:23:42.416Z,35.29
2023-05-18T10:26:12.926Z,35.29
2023-05-18T10:28:47.512Z,35.69
2023-05-18T10:31:18.137Z,36.74
2023-05-18T10:33:48.113Z,38.23
2023-05-18T10:36:19.240Z,38.29
2023-05-18T10:38:48.965Z,36.94
2023-05-18T10:41:22.892Z,38.45
2023-05-18T10:44:01.995Z,39.22
2023-05-18T10:46:32.020Z,40.30
2023-05-18T10:49:05.742Z,39.88
2023-05-18T10:51:37.652Z,38.93
2023-05-18T10:54:14.359Z,39.61
2023-05-18T10:56:47.965Z,39.00
2023-05-18T10:59:20.389Z,40.09
2023-05-18T11:01:52.815Z,40.93
2023-05-18T11:04:30.029Z,41.67
2023-05-18T11:07:00.262Z,41.60
2023-05-18T11:09:30.728Z,39.99
2023-05-18T11:12:04.660Z,42.22
2023-05-18T11:14:35.121Z,42.64
2023-05-18T11:17:25.398Z,41.51
2023-05-18T11:20:19.653Z,41.11
2023-05-18T11:22:51.540Z,43.06
2023-05-18T11:25:43.873Z,43.28
2023-05-18T11:28:14.696Z,43.92
2023-05-18T11:30:51.241Z,43.36
2023-05-18T11:33:31.014Z,43.14
2023-05-18T11:36:02.828Z,43.70
2023-05-18T11:38:52.980Z,42.77
2023-05-18T11:41:30.324Z,41.87
2023-05-18T11:44:09.960Z,44.32
2023-05-18T11:46:42.478Z,44.28
2023-05-18T11:49:14.534Z,44.69
2023-05-18T11:52:05.591Z,43.45
2023-05-18T11:54:39.649Z,44.01
2023-05-18T11:57:10.638Z,43.99
2023-05-18T11:59:41.677Z,44.84
2023-05-18T12:02:14.738Z,45.23
2023-05-18T12:04:46.806Z,44.04
2023-05-18T12:07:19.287Z,45.27
2023-05-18T12:09:50.009Z,45.54
2023-05-18T12:12:21.020Z,42.88
2023-05-18T12:14:58.448Z,42.41
2023-05-18T12:17:40.052Z,43.50
2023-05-18T12:20:11.371Z,44.75
2023-05-18T12:22:40.597Z,45.35
2023-05-18T12:25:10.831Z,44.45
2023-05-18T12:27:40.973Z,46.78
2023-05-18T12:30:13.972Z,44.04
2023-05-18T12:32:48.021Z,44.45
2023-05-18T12:35:17.323Z,46.06
2023-05-18T12:37:47.587Z,45.28
2023-05-18T12:40:18.014Z,45.47
2023-05-18T12:42:54.647Z,46.40
2023-05-18T12:45:26.539Z,43.51
2023-05-18T12:47:57.514Z,42.77
2023-05-18T12:50:27.225Z,45.92
2023-05-18T12:52:57.175Z,44.92
2023-05-18T12:55:26.656Z,44.39
2023-05-18T12:58:01.811Z,42.82
2023-05-18T13:00:36.487Z,43.43
2023-05-18T13:03:14.861Z,43.77
2023-05-18T13:05:46.544Z,44.49
2023-05-18T13:08:18.280Z,45.55
2023-05-18T13:10:53.008Z,45.45
2023-05-18T13:13:29.332Z,44.87
2023-05-18T13:15:59.692Z,42.05
2023-05-18T13:18:29.962Z,44.02
2023-05-18T13:20:58.855Z,44.22
2023-05-18T13:23:29.967Z,43.69
2023-05-18T13:25:59.145Z,41.32
2023-05-18T13:28:28.416Z,39.30
2023-05-18T13:30:57.466Z,40.60
2023-05-18T13:33:26.970Z,39.70
2023-05-18T13:35:57.357Z,43.11
2023-05-18T13:38:26.382Z,44.77
2023-05-18T13:40:55.619Z,42.37
2023-05-18T13:43:24.457Z,44.52
2023-05-18T13:45:53.389Z,44.70
2023-05-18T13:48:22.364Z,43.56
2023-05-18T13:50:51.714Z,42.61
2023-05-18T13:53:22.433Z,43.48
2023-05-18T13:55:51.408Z,43.90
2023-05-18T13:58:20.701Z,43.57
2023-05-18T14:00:50.700Z,43.53
2023-05-18T14:03:24.406Z,44.34
2023-05-18T14:05:55.334Z,43.20
2023-05-18T14:08:25.973Z,43.17
2023-05-18T14:10:54.847Z,43.93
2023-05-18T14:13:23.988Z,44.95
2023-05-18T14:15:52.975Z,45.27
2023-05-18T14:18:22.149Z,44.61
2023-05-18T14:20:50.978Z,43.00
2023-05-18T14:23:20.026Z,44.62
2023-05-18T14:25:50.427Z,43.93
2023-05-18T14:28:19.729Z,44.31
2023-05-18T14:30:48.939Z,44.44
2023-05-18T14:33:17.969Z,44.71
2023-05-18T14:35:48.909Z,44.94
2023-05-18T14:38:17.594Z,39.37
2023-05-18T14:40:46.654Z,38.49
2023-05-18T14:43:16.880Z,37.34
2023-05-18T14:45:56.572Z,40.39
2023-05-18T14:48:35.886Z,44.26
2023-05-18T14:51:05.260Z,41.95
2023-05-18T14:53:34.364Z,43.44
2023-05-18T14:56:06.227Z,43.79
2023-05-18T14:58:37.429Z,43.56
2023-05-18T15:01:07.187Z,43.21
2023-05-18T15:03:36.363Z,42.86
2023-05-18T15:06:05.668Z,42.56
2023-05-18T15:08:34.910Z,42.34
2023-05-18T15:11:04.184Z,42.09
2023-05-18T15:13:33.570Z,42.35
2023-05-18T15:16:03.944Z,41.22
2023-05-18T15:18:33.127Z,42.14
2023-05-18T15:21:02.182Z,40.71
2023-05-18T15:23:31.025Z,40.13
2023-05-18T15:25:59.868Z,41.09
2023-05-18T15:28:28.660Z,40.53
2023-05-18T15:30:57.463Z,39.57
2023-05-18T15:33:27.871Z,40.24
2023-05-18T15:35:56.706Z,38.56
2023-05-18T15:38:27.252Z,34.95
2023-05-18T15:40:57.368Z,33.73
2023-05-18T15:43:26.832Z,33.21
2023-05-18T15:45:55.905Z,32.83
2023-05-18T15:48:24.750Z,32.16
2023-05-18T15:50:55.163Z,31.80
2023-05-18T15:53:24.111Z,31.67
2023-05-18T15:55:57.472Z,31.49
2023-05-18T15:58:27.660Z,30.89
2023-05-18T16:01:00.362Z,31.08
2023-05-18T16:03:29.998Z,30.88
2023-05-18T16:06:01.159Z,30.60
2023-05-18T16:08:32.190Z,30.50
2023-05-18T16:11:02.340Z,30.28
2023-05-18T16:13:31.330Z,30.06
2023-05-18T16:16:00.253Z,29.84
2023-05-18T16:18:29.432Z,29.64
2023-05-18T16:20:58.405Z,29.75
2023-05-18T16:23:28.673Z,29.36
2023-05-18T16:25:57.745Z,29.08
2023-05-18T16:28:27.204Z,28.45
2023-05-18T16:30:56.539Z,28.48
2023-05-18T16:33:25.969Z,27.73
2023-05-18T16:35:58.459Z,27.69
2023-05-18T16:38:31.567Z,27.37
2023-05-18T16:41:00.373Z,27.58
2023-05-18T16:43:29.554Z,27.32
2023-05-18T16:45:58.655Z,27.22
2023-05-18T16:48:28.265Z,27.40
2023-05-18T16:50:57.613Z,27.07
2023-05-18T16:53:26.926Z,26.61
2023-05-18T16:55:57.451Z,26.59
2023-05-18T16:58:29.559Z,26.38
2023-05-18T17:00:59.100Z,26.42
2023-05-18T17:03:29.507Z,26.10
2023-05-18T17:05:58.381Z,26.20
2023-05-18T17:08:27.323Z,26.14
2023-05-18T17:10:57.906Z,25.91
2023-05-18T17:13:27.093Z,25.73
2023-05-18T17:15:56.403Z,25.66
2023-05-18T17:18:29.292Z,25.65
2023-05-18T17:20:58.782Z,25.54
2023-05-18T17:23:27.789Z,25.30
2023-05-18T17:26:05.584Z,25.24
2023-05-18T17:28:35.720Z,25.09
2023-05-18T17:31:05.131Z,25.10
2023-05-18T17:33:34.000Z,24.90
2023-05-18T17:36:03.034Z,24.82
2023-05-18T17:38:32.260Z,24.76
2023-05-18T17:41:04.301Z,24.56
2023-05-18T17:43:33.342Z,24.68
2023-05-18T17:46:02.411Z,24.32
2023-05-18T17:48:31.899Z,24.12
2023-05-18T17:51:01.461Z,24.05
2023-05-18T17:53:31.219Z,23.83
2023-05-18T17:56:00.534Z,23.97
2023-05-18T17:58:30.931Z,23.95
2023-05-18T18:01:00.284Z,23.92
2023-05-18T18:03:32.597Z,23.75
2023-05-18T18:06:02.070Z,23.70
2023-05-18T18:08:34.033Z,23.68
2023-05-18T18:11:03.574Z,23.59
2023-05-18T18:13:34.956Z,23.78
2023-05-18T18:16:04.509Z,23.94
2023-05-18T18:18:36.220Z,23.56
2023-05-18T18:21:06.864Z,23.92
2023-05-18T18:23:38.755Z,23.95
2023-05-18T18:26:08.382Z,23.88
2023-05-18T18:28:38.876Z,23.87
2023-05-18T18:31:08.303Z,23.74
2023-05-18T18:33:37.989Z,23.53
2023-05-18T18:36:07.828Z,23.52
2023-05-18T18:38:37.199Z,23.48
2023-05-18T18:41:06.869Z,23.46
2023-05-18T18:43:38.873Z,23.51
2023-05-18T18:46:09.797Z,23.44
2023-05-18T18:48:39.292Z,23.37
2023-05-18T18:51:08.410Z,23.33
2023-05-18T18:53:37.654Z,23.29
2023-05-18T18:56:07.390Z,23.33
2023-05-18T18:58:36.451Z,23.21
2023-05-18T19:01:05.938Z,22.97
2023-05-18T19:03:36.742Z,22.95
2023-05-18T19:06:06.581Z,23.08
2023-05-18T19:08:38.438Z,22.98
2023-05-18T19:11:07.630Z,22.86
2023-05-18T19:13:37.273Z,22.97
2023-05-18T19:16:06.994Z,22.89
2023-05-18T19:18:37.978Z,22.89
2023-05-18T19:21:07.544Z,22.80
2023-05-18T19:23:37.328Z,22.74
2023-05-18T19:26:07.002Z,22.67
2023-05-18T19:28:36.388Z,22.58
2023-05-18T19:31:05.981Z,22.57
2023-05-18T19:33:35.266Z,22.51
2023-05-18T19:36:10.645Z,22.42
2023-05-18T19:38:39.915Z,22.13
2023-05-18T19:41:08.972Z,22.25
2023-05-18T19:43:40.934Z,22.26
2023-05-18T19:46:10.561Z,22.17
2023-05-18T19:48:40.233Z,22.28
2023-05-18T19:51:12.083Z,21.89
2023-05-18T19:53:43.286Z,21.97
2023-05-18T19:56:12.752Z,21.83
2023-05-18T19:58:42.114Z,22.05
2023-05-18T20:01:11.127Z,21.97
2023-05-18T20:03:43.110Z,21.87
2023-05-18T20:06:14.739Z,21.91
2023-05-18T20:08:44.787Z,22.18
2023-05-18T20:11:14.849Z,22.20
2023-05-18T20:13:46.098Z,22.03
2023-05-18T20:16:15.339Z,21.98
2023-05-18T20:18:46.094Z,21.91
2023-05-18T20:21:18.773Z,22.00
2023-05-18T20:23:48.668Z,21.91
2023-05-18T20:26:21.133Z,21.98
2023-05-18T20:28:50.621Z,22.15
2023-05-18T20:31:19.920Z,22.13
2023-05-18T20:33:49.754Z,22.37
2023-05-18T20:36:21.514Z,22.34
2023-05-18T20:38:52.917Z,22.33
2023-05-18T20:41:23.340Z,22.17
2023-05-18T20:43:52.876Z,22.36
2023-05-18T20:46:23.996Z,22.42
2023-05-18T20:48:55.338Z,22.26
2023-05-18T20:51:26.097Z,22.42
2023-05-18T20:53:55.309Z,22.43
2023-05-18T20:56:26.856Z,22.34
2023-05-18T20:58:56.962Z,22.11
2023-05-18T21:01:28.928Z,22.29
2023-05-18T21:03:59.163Z,22.41
2023-05-18T21:06:31.090Z,22.41
2023-05-18T21:09:01.944Z,22.46
2023-05-18T21:11:49.767Z,22.43
2023-05-18T21:14:21.944Z,22.46
2023-05-18T21:16:51.532Z,22.21
2023-05-18T21:19:21.641Z,22.17
2023-05-18T21:21:52.312Z,22.34
2023-05-18T21:24:22.198Z,22.23
2023-05-18T21:26:51.737Z,21.68
2023-05-18T21:29:21.167Z,22.29
2023-05-18T21:31:50.485Z,22.08
2023-05-18T21:34:19.786Z,22.10
2023-05-18T21:36:49.251Z,22.09
2023-05-18T21:39:19.942Z,22.16
2023-05-18T21:41:48.893Z,22.07
2023-05-18T21:44:17.972Z,22.09
2023-05-18T21:46:46.867Z,22.23
2023-05-18T21:49:16.634Z,22.12
2023-05-18T21:51:46.205Z,22.15
2023-05-18T21:54:15.704Z,21.99
2023-05-18T21:56:46.307Z,22.05
2023-05-18T21:59:15.601Z,22.04
2023-05-18T22:01:44.795Z,22.17
2023-05-18T22:04:13.932Z,22.03
2023-05-18T22:06:43.865Z,22.03
2023-05-18T22:09:13.221Z,21.95
2023-05-18T22:11:45.300Z,21.86
2023-05-18T22:14:18.332Z,21.85
2023-05-18T22:16:51.757Z,22.07
2023-05-18T22:19:20.617Z,22.05
2023-05-18T22:21:50.427Z,21.87
2023-05-18T22:24:19.794Z,21.87
2023-05-18T22:26:49.047Z,21.77
2023-05-18T22:29:20.766Z,21.81
2023-05-18T22:31:52.217Z,21.85
2023-05-18T22:34:21.469Z,21.81
2023-05-18T22:36:50.717Z,21.69
2023-05-18T22:39:19.671Z,21.78
2023-05-18T22:41:48.641Z,21.62
2023-05-18T22:44:19.079Z,21.36
2023-05-18T22:46:48.264Z,21.51
2023-05-18T22:49:17.478Z,21.33
2023-05-18T22:51:47.118Z,21.51
2023-05-18T22:54:16.093Z,21.65
2023-05-18T22:56:45.017Z,21.68
2023-05-18T22:59:13.949Z,21.65
2023-05-18T23:01:44.360Z,21.67
2023-05-18T23:04:13.366Z,21.53
2023-05-18T23:06:44.212Z,21.57
2023-05-18T23:09:13.307Z,21.60
2023-05-18T23:11:45.065Z,21.56
2023-05-18T23:14:14.321Z,21.55
2023-05-18T23:16:47.766Z,21.30
2023-05-18T23:19:18.585Z,21.39
2023-05-18T23:21:47.944Z,21.49
2023-05-18T23:24:17.414Z,21.42
2023-05-18T23:26:46.481Z,21.38
2023-05-18T23:29:15.498Z,21.37
2023-05-18T23:31:45.830Z,21.41
2023-05-18T23:34:15.361Z,21.46
2023-05-18T23:36:46.075Z,21.49
2023-05-18T23:39:15.133Z,21.40
2023-05-18T23:41:45.564Z,21.20
2023-05-18T23:44:15.203Z,21.23
2023-05-18T23:46:46.228Z,21.49
2023-05-18T23:49:15.723Z,21.12
2023-05-18T23:51:45.720Z,21.31
2023-05-18T23:54:15.410Z,21.38
2023-05-18T23:56:44.791Z,21.21
2023-05-18T23:59:15.796Z,21.21
